Time;durP1;ratioP1;P1;durP2;ratioP2;P2;SDS_P1;SDS_P2;PMS_P1;PMS_P2;Temp;Humidity;BMP_temperature;BMP_pressure;BME280_temperature;BME280_humidity;BME280_pressure;Samples;Min_cycle;Max_cycle;Signal;HPM_P1;HPM_P2
2021/11/24 00:00:23;;;;;;;21.75;10.70;;;2.90;99.90;;;;;;4982887;28;20050;-72
2021/11/24 00:02:50;;;;;;;21.60;10.68;;;2.80;99.90;;;;;;4985178;28;20506;-71
2021/11/24 00:05:18;;;;;;;28.23;11.18;;;2.70;99.90;;;;;;4985970;28;20050;-72
2021/11/24 00:07:45;;;;;;;19.92;10.02;;;2.60;99.90;;;;;;4985277;28;20055;-72
2021/11/24 00:10:14;;;;;;;20.60;10.48;;;2.60;99.90;;;;;;4986210;28;20101;-72
2021/11/24 00:12:41;;;;;;;21.98;11.35;;;2.60;99.90;;;;;;4984843;28;20055;-72
2021/11/24 00:15:10;;;;;;;22.58;11.10;;;2.80;99.90;;;;;;4989535;28;20058;-72
2021/11/24 00:17:38;;;;;;;30.08;12.52;;;2.90;99.90;;;;;;4984596;28;20109;-72
2021/11/24 00:20:06;;;;;;;28.25;13.85;;;3.00;99.90;;;;;;4987341;28;20132;-71
2021/11/24 00:22:34;;;;;;;26.73;13.70;;;3.20;99.90;;;;;;4987926;28;20050;-72
2021/11/24 00:25:01;;;;;;;38.05;15.48;;;3.60;99.90;;;;;;4987960;28;20474;-72
2021/11/24 00:27:27;;;;;;;36.30;15.90;;;3.80;99.90;;;;;;4985225;28;20095;-72
2021/11/24 00:29:55;;;;;;;40.72;16.63;;;4.00;99.90;;;;;;4987455;28;20076;-72
2021/11/24 00:32:22;;;;;;;34.10;16.55;;;4.30;99.90;;;;;;4984348;28;20050;-72
2021/11/24 00:34:49;;;;;;;33.83;16.60;;;4.40;99.90;;;;;;4989168;28;20104;-72
2021/11/24 00:37:16;;;;;;;34.13;16.20;;;4.50;99.90;;;;;;4981380;28;20046;-72
2021/11/24 00:39:43;;;;;;;37.28;16.30;;;4.60;99.90;;;;;;4985400;28;20406;-72
2021/11/24 00:42:10;;;;;;;39.15;16.58;;;4.50;99.90;;;;;;4988089;28;20051;-72
2021/11/24 00:44:37;;;;;;;37.72;17.30;;;4.60;99.90;;;;;;4987283;28;20070;-72
2021/11/24 00:47:04;;;;;;;46.25;19.50;;;4.60;99.90;;;;;;4984236;28;20072;-72
2021/11/24 00:49:31;;;;;;;35.38;18.00;;;4.80;99.90;;;;;;4982773;28;20078;-72
2021/11/24 00:51:58;;;;;;;38.22;19.40;;;4.90;99.90;;;;;;4986390;28;20090;-72
2021/11/24 00:54:29;;;;;;;39.15;17.88;;;4.80;99.90;;;;;;4981352;28;20042;-72
2021/11/24 00:56:56;;;;;;;39.33;18.73;;;4.80;99.90;;;;;;4986198;28;20098;-72
2021/11/24 00:59:23;;;;;;;41.78;18.27;;;4.70;99.90;;;;;;4983008;28;20109;-72
2021/11/24 01:01:51;;;;;;;34.72;18.23;;;4.60;99.90;;;;;;4990014;28;20096;-72
2021/11/24 01:04:18;;;;;;;35.65;17.85;;;4.50;99.90;;;;;;4987851;28;20491;-72
2021/11/24 01:06:45;;;;;;;34.55;18.20;;;4.50;99.90;;;;;;4986866;28;20097;-72
2021/11/24 01:09:13;;;;;;;38.42;17.33;;;4.40;99.90;;;;;;4990416;28;20058;-72
2021/11/24 01:11:40;;;;;;;33.92;17.52;;;4.40;99.90;;;;;;4990798;28;20178;-72
2021/11/24 01:14:08;;;;;;;40.13;18.60;;;4.40;99.90;;;;;;4989970;28;20051;-72
2021/11/24 01:16:36;;;;;;;33.60;15.98;;;4.30;99.90;;;;;;4983494;28;20046;-72
2021/11/24 01:19:03;;;;;;;31.58;15.52;;;4.10;99.90;;;;;;4989828;28;20050;-72
2021/11/24 01:21:30;;;;;;;28.73;14.50;;;3.80;99.90;;;;;;4990611;28;20050;-72
2021/11/24 01:23:57;;;;;;;25.48;14.02;;;3.50;99.90;;;;;;4988092;28;20049;-72
2021/11/24 01:26:23;;;;;;;26.38;13.82;;;3.30;99.90;;;;;;4990494;28;20054;-72
2021/11/24 01:28:50;;;;;;;29.08;14.65;;;3.10;99.90;;;;;;4988709;28;20050;-72
2021/11/24 01:31:19;;;;;;;30.35;14.40;;;2.90;99.90;;;;;;4989803;28;20113;-72
2021/11/24 01:33:46;;;;;;;33.22;15.25;;;2.80;99.90;;;;;;4990228;28;20065;-72
2021/11/24 01:36:13;;;;;;;23.58;14.05;;;2.70;99.90;;;;;;4983070;28;20518;-72
2021/11/24 01:38:40;;;;;;;34.08;15.55;;;2.60;99.90;;;;;;4990273;28;20074;-71
2021/11/24 01:41:07;;;;;;;30.77;16.38;;;2.60;99.90;;;;;;4990056;28;20098;-72
2021/11/24 01:43:34;;;;;;;34.10;16.38;;;2.70;99.90;;;;;;4988019;28;20433;-71
2021/11/24 01:46:01;;;;;;;35.38;18.15;;;3.00;99.90;;;;;;4999406;28;20058;-72
2021/11/24 01:48:28;;;;;;;36.53;18.33;;;3.40;99.90;;;;;;4990045;28;20129;-72
2021/11/24 01:50:58;;;;;;;41.63;19.83;;;3.60;99.90;;;;;;4985953;28;20050;-72
2021/11/24 01:53:27;;;;;;;46.53;19.83;;;3.90;99.90;;;;;;4989073;28;20050;-72
2021/11/24 01:55:56;;;;;;;37.90;19.10;;;4.10;99.90;;;;;;4988792;28;20054;-71
2021/11/24 01:58:25;;;;;;;37.97;19.77;;;4.10;99.90;;;;;;4987533;28;20049;-73
2021/11/24 02:00:52;;;;;;;41.15;20.92;;;4.20;99.90;;;;;;4981450;28;20082;-71
2021/11/24 02:03:20;;;;;;;43.25;21.45;;;4.30;99.90;;;;;;4990140;28;20437;-72
2021/11/24 02:05:47;;;;;;;43.10;20.30;;;4.30;99.90;;;;;;4987337;28;20116;-72
2021/11/24 02:08:14;;;;;;;36.80;18.88;;;4.30;99.90;;;;;;4988599;28;20054;-72
2021/11/24 02:10:40;;;;;;;46.40;19.95;;;4.20;99.90;;;;;;4981531;28;20098;-72
2021/11/24 02:13:07;;;;;;;36.08;18.95;;;4.10;99.90;;;;;;4985727;28;20050;-72
2021/11/24 02:15:35;;;;;;;39.67;20.58;;;3.90;99.90;;;;;;4986271;28;20050;-72
2021/11/24 02:18:05;;;;;;;33.05;17.52;;;3.80;99.90;;;;;;4989212;28;20872;-72
2021/11/24 02:20:45;;;;;;;31.90;17.88;;;3.60;99.90;;;;;;4992185;28;20046;-72
2021/11/24 02:23:13;;;;;;;32.05;16.30;;;3.30;99.90;;;;;;4992370;28;20046;-72
2021/11/24 02:25:43;;;;;;;30.27;16.90;;;3.10;99.90;;;;;;4990999;28;20109;-72
2021/11/24 02:28:10;;;;;;;31.05;15.77;;;2.90;99.90;;;;;;4993763;28;20082;-72
2021/11/24 02:30:37;;;;;;;29.83;16.38;;;2.70;99.90;;;;;;4992074;28;20145;-72
2021/11/24 02:33:04;;;;;;;31.55;15.40;;;2.50;99.90;;;;;;4993872;28;20136;-72
2021/11/24 02:35:31;;;;;;;28.60;15.68;;;2.40;99.90;;;;;;4990400;28;20867;-72
2021/11/24 02:37:58;;;;;;;29.40;15.82;;;2.30;99.90;;;;;;5003079;28;20042;-72
2021/11/24 02:40:32;;;;;;;35.90;16.60;;;2.20;99.90;;;;;;4993682;28;20081;-72
2021/11/24 02:43:00;;;;;;;29.23;15.52;;;2.10;99.90;;;;;;4994742;28;20050;-72
2021/11/24 02:45:28;;;;;;;30.42;16.63;;;2.00;99.90;;;;;;4991558;28;20077;-72
2021/11/24 02:47:54;;;;;;;32.33;15.43;;;1.90;99.90;;;;;;4993281;28;20697;-72
2021/11/24 02:50:21;;;;;;;31.13;15.57;;;1.80;99.90;;;;;;4991256;28;20050;-71
2021/11/24 02:52:50;;;;;;;32.17;14.85;;;1.70;99.90;;;;;;4993604;28;20129;-72
2021/11/24 02:55:17;;;;;;;27.15;15.25;;;1.60;99.90;;;;;;4991177;28;20050;-72
2021/11/24 02:57:48;;;;;;;31.70;15.75;;;1.60;99.90;;;;;;4991614;28;20050;-72
2021/11/24 03:00:16;;;;;;;28.70;15.60;;;1.60;99.90;;;;;;4994355;28;20104;-72
2021/11/24 03:02:45;;;;;;;27.80;15.00;;;1.60;99.90;;;;;;4992968;28;20776;-72
2021/11/24 03:05:13;;;;;;;30.85;16.08;;;1.50;99.90;;;;;;4990710;28;20046;-72
2021/11/24 03:07:40;;;;;;;34.30;16.42;;;1.50;99.90;;;;;;4992968;28;20528;-72
2021/11/24 03:10:07;;;;;;;28.45;15.07;;;1.40;99.90;;;;;;4989661;28;20050;-72
2021/11/24 03:12:36;;;;;;;35.50;16.92;;;1.40;99.90;;;;;;4993110;28;20054;-72
2021/11/24 03:15:05;;;;;;;31.20;15.98;;;1.30;99.90;;;;;;4989939;28;20097;-72
2021/11/24 03:17:32;;;;;;;29.42;15.30;;;1.20;99.90;;;;;;4991823;28;20101;-72
2021/11/24 03:19:59;;;;;;;33.28;16.00;;;1.10;99.90;;;;;;4988007;28;20047;-72
2021/11/24 03:22:26;;;;;;;32.40;16.15;;;1.10;99.90;;;;;;4992872;28;20097;-72
2021/11/24 03:24:56;;;;;;;27.40;15.50;;;1.00;99.90;;;;;;4992870;28;20047;-72
2021/11/24 03:27:26;;;;;;;31.33;15.18;;;1.00;99.90;;;;;;4987547;28;20050;-72
2021/11/24 03:29:53;;;;;;;28.55;15.80;;;0.80;99.90;;;;;;4986614;28;20093;-72
2021/11/24 03:32:20;;;;;;;32.03;14.82;;;0.80;99.90;;;;;;4991973;28;20042;-72
2021/11/24 03:34:47;;;;;;;36.72;17.10;;;0.80;99.90;;;;;;4993139;28;20083;-72
2021/11/24 03:37:14;;;;;;;36.13;16.65;;;0.80;99.90;;;;;;4993307;28;20050;-72
2021/11/24 03:39:41;;;;;;;32.33;16.90;;;0.80;99.90;;;;;;4992279;28;20078;-72
2021/11/24 03:42:08;;;;;;;31.25;15.57;;;0.80;99.90;;;;;;4986676;28;20074;-71
2021/11/24 03:44:35;;;;;;;31.98;16.83;;;0.80;99.90;;;;;;5005632;28;20057;-72
2021/11/24 03:47:03;;;;;;;31.92;17.17;;;0.80;99.90;;;;;;4991625;28;20058;-72
2021/11/24 03:49:30;;;;;;;37.00;17.92;;;0.80;99.90;;;;;;4990012;28;20068;-72
2021/11/24 03:51:57;;;;;;;35.85;17.50;;;0.80;99.90;;;;;;5004596;28;20113;-73
2021/11/24 03:54:24;;;;;;;30.98;15.52;;;0.70;99.90;;;;;;4989212;28;20109;-71
2021/11/24 03:56:51;;;;;;;33.72;16.75;;;0.70;99.90;;;;;;4999591;28;20109;-72
2021/11/24 03:59:18;;;;;;;35.85;17.10;;;0.70;99.90;;;;;;4991700;28;20038;-72
2021/11/24 04:01:45;;;;;;;34.53;16.95;;;0.60;99.90;;;;;;4991703;28;20050;-72
2021/11/24 04:04:12;;;;;;;32.53;16.67;;;0.50;99.90;;;;;;4989569;28;20145;-72
2021/11/24 04:06:39;;;;;;;34.17;15.85;;;0.50;99.90;;;;;;4985934;28;20105;-72
2021/11/24 04:09:06;;;;;;;31.90;16.50;;;0.40;99.90;;;;;;4987769;28;20498;-71
2021/11/24 04:11:33;;;;;;;35.13;16.48;;;0.40;99.90;;;;;;4987952;28;20054;-71
2021/11/24 04:14:00;;;;;;;34.58;16.52;;;0.40;99.90;;;;;;4991448;28;20498;-71
2021/11/24 04:16:27;;;;;;;37.08;16.83;;;0.40;99.90;;;;;;4991602;28;20054;-72
2021/11/24 04:18:55;;;;;;;32.83;17.00;;;0.40;99.90;;;;;;4989852;28;20072;-71
2021/11/24 04:21:23;;;;;;;37.83;18.00;;;0.50;99.90;;;;;;4989735;28;20097;-72
2021/11/24 04:23:49;;;;;;;38.35;16.67;;;0.40;99.90;;;;;;4991650;28;20060;-72
2021/11/24 04:26:16;;;;;;;37.88;15.98;;;0.30;99.90;;;;;;4991499;28;20043;-72
2021/11/24 04:28:43;;;;;;;30.13;15.38;;;0.30;99.90;;;;;;4989839;28;20046;-72
2021/11/24 04:31:10;;;;;;;31.95;15.77;;;0.20;99.90;;;;;;4990117;28;20081;-72
2021/11/24 04:33:38;;;;;;;29.75;15.98;;;0.10;99.90;;;;;;4991048;28;20058;-72
2021/11/24 04:36:05;;;;;;;32.67;15.73;;;0.00;99.90;;;;;;4991405;28;20113;-71
2021/11/24 04:38:33;;;;;;;30.25;15.73;;;-0.10;99.90;;;;;;4988563;28;20085;-71
2021/11/24 04:41:00;;;;;;;32.13;16.85;;;-0.10;99.90;;;;;;4985785;28;20078;-72
2021/11/24 04:43:31;;;;;;;32.95;15.63;;;-0.10;99.90;;;;;;4999602;28;20051;-71
2021/11/24 04:46:00;;;;;;;30.80;15.02;;;0.00;99.90;;;;;;4988841;28;20104;-71
2021/11/24 04:48:28;;;;;;;32.92;15.68;;;0.00;99.90;;;;;;4992425;28;20043;-71
2021/11/24 04:50:55;;;;;;;40.22;17.00;;;0.00;99.90;;;;;;4987792;28;20046;-71
2021/11/24 04:53:22;;;;;;;34.88;16.20;;;0.10;99.90;;;;;;4990494;28;20050;-71
2021/11/24 04:55:49;;;;;;;29.60;15.70;;;0.10;99.90;;;;;;4983862;28;20109;-72
2021/11/24 04:58:16;;;;;;;37.55;16.92;;;0.00;99.90;;;;;;5003021;28;20050;-71
2021/11/24 05:00:43;;;;;;;35.53;16.95;;;0.00;99.90;;;;;;4989392;28;20094;-71
2021/11/24 05:03:10;;;;;;;36.05;17.83;;;0.10;99.90;;;;;;4990180;28;20042;-72
2021/11/24 05:05:42;;;;;;;47.17;18.85;;;0.10;99.90;;;;;;4989726;28;20047;-71
2021/11/24 05:08:09;;;;;;;47.83;20.25;;;0.20;99.90;;;;;;4988933;28;20053;-71
2021/11/24 05:10:36;;;;;;;51.97;19.90;;;0.20;99.90;;;;;;4991557;28;20058;-71
2021/11/24 05:13:05;;;;;;;48.45;20.10;;;0.30;99.90;;;;;;4989928;28;20090;-71
2021/11/24 05:15:35;;;;;;;43.42;20.25;;;0.40;99.90;;;;;;4982457;28;20042;-71
2021/11/24 05:18:06;;;;;;;44.83;19.40;;;0.40;99.90;;;;;;4990065;28;20074;-71
2021/11/24 05:20:34;;;;;;;44.47;19.55;;;0.30;99.90;;;;;;4988205;28;20478;-71
2021/11/24 05:23:04;;;;;;;44.30;22.27;;;0.30;99.90;;;;;;4990920;28;20050;-70
2021/11/24 05:25:32;;;;;;;54.45;22.08;;;0.30;99.90;;;;;;4991042;28;20058;-71
2021/11/24 05:28:00;;;;;;;55.35;23.23;;;0.30;99.90;;;;;;4990013;28;20053;-70
2021/11/24 05:30:28;;;;;;;58.50;22.98;;;0.60;99.90;;;;;;4985853;28;20047;-70
2021/11/24 05:32:55;;;;;;;67.32;27.70;;;0.70;99.90;;;;;;4990665;28;20046;-70
2021/11/24 05:35:25;;;;;;;65.80;25.90;;;1.00;99.90;;;;;;4990778;28;20109;-70
2021/11/24 05:37:53;;;;;;;71.93;29.13;;;1.20;99.90;;;;;;4986789;28;20120;-71
2021/11/24 05:40:23;;;;;;;77.15;29.40;;;1.40;99.90;;;;;;4987501;28;20514;-71
2021/11/24 05:42:50;;;;;;;80.43;29.10;;;1.50;99.90;;;;;;4987578;28;20097;-71
2021/11/24 05:48:08;;;;;;;75.50;29.55;;;1.80;99.90;;;;;;4983384;28;20066;-71
2021/11/24 05:50:43;;;;;;;79.10;31.63;;;1.90;99.90;;;;;;4982214;28;20062;-71
2021/11/24 05:53:10;;;;;;;87.40;32.60;;;2.00;99.90;;;;;;4985492;28;20403;-70
2021/11/24 05:55:37;;;;;;;84.28;32.17;;;2.00;99.90;;;;;;4988134;28;20113;-71
2021/11/24 05:58:04;;;;;;;89.25;32.17;;;2.10;99.90;;;;;;4984883;28;20046;-71
2021/11/24 06:00:33;;;;;;;79.95;32.58;;;2.10;99.90;;;;;;4985537;28;20047;-71
2021/11/24 06:03:01;;;;;;;83.80;31.50;;;2.10;99.90;;;;;;4985294;28;20480;-71
2021/11/24 06:05:28;;;;;;;84.68;31.90;;;2.10;99.90;;;;;;4983677;28;20126;-71
2021/11/24 06:07:56;;;;;;;86.20;31.83;;;2.10;99.90;;;;;;4998654;28;20074;-71
2021/11/24 06:10:23;;;;;;;82.45;31.88;;;2.20;99.90;;;;;;4986400;28;20039;-71
2021/11/24 06:12:50;;;;;;;83.00;32.08;;;2.20;99.90;;;;;;4986391;28;20050;-71
2021/11/24 06:15:17;;;;;;;82.18;31.55;;;2.20;99.90;;;;;;4988369;28;20042;-71
2021/11/24 06:17:46;;;;;;;92.45;32.97;;;2.30;99.90;;;;;;4989277;28;20182;-70
2021/11/24 06:20:15;;;;;;;81.53;32.13;;;2.30;99.90;;;;;;4987333;28;20050;-71
2021/11/24 06:22:42;;;;;;;88.50;32.95;;;2.30;99.90;;;;;;4987497;28;20051;-71
2021/11/24 06:25:11;;;;;;;79.57;30.92;;;2.20;99.90;;;;;;4986177;28;20100;-71
2021/11/24 06:27:42;;;;;;;78.72;29.67;;;2.00;99.90;;;;;;4984648;28;20104;-71
2021/11/24 06:30:13;;;;;;;69.93;28.95;;;1.80;99.90;;;;;;4982528;28;20047;-71
2021/11/24 06:32:40;;;;;;;67.53;28.40;;;1.70;99.90;;;;;;4984483;28;20446;-71
2021/11/24 06:35:08;;;;;;;74.07;31.42;;;1.50;99.90;;;;;;4986484;28;20903;-71
2021/11/24 06:37:37;;;;;;;72.85;30.13;;;1.50;99.90;;;;;;4985906;28;20116;-71
2021/11/24 06:40:06;;;;;;;77.18;31.95;;;1.60;99.90;;;;;;5002107;28;20100;-71
2021/11/24 06:42:33;;;;;;;88.35;31.15;;;1.70;99.90;;;;;;4988628;28;20517;-71
2021/11/24 06:45:00;;;;;;;79.75;31.55;;;1.70;99.90;;;;;;4983876;28;20051;-71
2021/11/24 06:47:27;;;;;;;87.53;33.28;;;1.90;99.90;;;;;;4997403;28;20498;-71
2021/11/24 06:49:54;;;;;;;88.43;34.00;;;1.90;99.90;;;;;;4987787;28;20513;-71
2021/11/24 06:52:21;;;;;;;81.25;32.22;;;1.80;99.90;;;;;;4984925;28;20050;-71
2021/11/24 06:54:48;;;;;;;81.80;30.38;;;1.90;99.90;;;;;;4987509;28;20058;-71
2021/11/24 06:57:15;;;;;;;92.20;32.70;;;1.80;99.90;;;;;;4986013;28;20050;-71
2021/11/24 06:59:42;;;;;;;77.03;31.63;;;1.90;99.90;;;;;;4985947;28;20113;-71
2021/11/24 07:02:09;;;;;;;76.85;31.13;;;2.00;99.90;;;;;;4987737;28;20101;-71
2021/11/24 07:04:38;;;;;;;83.93;33.65;;;2.00;99.90;;;;;;4988948;28;20069;-71
2021/11/24 07:07:05;;;;;;;95.97;33.33;;;2.00;99.90;;;;;;4991704;28;20140;-71
2021/11/24 07:09:32;;;;;;;86.97;33.10;;;1.90;99.90;;;;;;4984824;28;20050;-71
2021/11/24 07:11:59;;;;;;;90.55;32.22;;;2.00;99.90;;;;;;4985359;28;20046;-71
2021/11/24 07:14:26;;;;;;;84.22;31.08;;;2.10;99.90;;;;;;4982141;28;20093;-71
2021/11/24 07:16:53;;;;;;;82.68;30.95;;;2.20;99.90;;;;;;4984586;28;20065;-71
2021/11/24 07:19:22;;;;;;;83.55;31.23;;;2.20;99.90;;;;;;4983753;28;20406;-71
2021/11/24 07:21:49;;;;;;;81.43;30.63;;;2.20;99.90;;;;;;4984881;28;20450;-71
2021/11/24 07:24:19;;;;;;;89.18;32.00;;;2.30;99.90;;;;;;4985503;28;20518;-71
2021/11/24 07:26:46;;;;;;;84.47;30.95;;;2.20;99.90;;;;;;4987724;28;20047;-71
2021/11/24 07:29:16;;;;;;;90.38;33.80;;;2.30;99.90;;;;;;4989279;28;20121;-71
2021/11/24 07:31:43;;;;;;;88.28;31.38;;;2.30;99.90;;;;;;4989657;28;20058;-71
2021/11/24 07:34:13;;;;;;;86.82;31.27;;;2.30;99.90;;;;;;4990414;28;20054;-71
2021/11/24 07:36:40;;;;;;;102.57;31.98;;;2.30;99.90;;;;;;4990427;28;20454;-72
2021/11/24 07:39:07;;;;;;;88.70;32.15;;;2.40;99.90;;;;;;4985903;28;20433;-71
2021/11/24 07:41:34;;;;;;;91.78;32.88;;;2.50;99.90;;;;;;4992151;28;20104;-71
2021/11/24 07:44:01;;;;;;;89.38;31.55;;;2.50;99.90;;;;;;4991636;28;20050;-71
2021/11/24 07:46:28;;;;;;;100.93;33.55;;;2.50;99.90;;;;;;4987573;28;20493;-71
2021/11/24 07:48:57;;;;;;;99.30;32.08;;;2.60;99.90;;;;;;4988886;28;20588;-71
2021/11/24 07:51:26;;;;;;;95.90;32.80;;;2.70;99.90;;;;;;4989956;28;20054;-71
2021/11/24 07:53:54;;;;;;;95.95;31.83;;;2.80;99.90;;;;;;4986857;28;20042;-71
2021/11/24 07:56:22;;;;;;;95.05;31.75;;;2.80;99.90;;;;;;4988501;28;20094;-72
2021/11/24 07:58:49;;;;;;;87.70;31.25;;;2.60;99.90;;;;;;4991258;28;20046;-71
2021/11/24 08:01:16;;;;;;;93.88;32.30;;;2.60;99.90;;;;;;4987576;28;20087;-71
2021/11/24 08:03:43;;;;;;;86.75;32.63;;;2.60;99.90;;;;;;4987243;28;20667;-72
2021/11/24 08:06:10;;;;;;;83.35;32.85;;;2.70;99.90;;;;;;4988775;28;20081;-71
2021/11/24 08:08:38;;;;;;;80.57;31.10;;;2.60;99.90;;;;;;4987343;28;20140;-71
2021/11/24 08:11:05;;;;;;;92.32;30.08;;;2.70;99.90;;;;;;4988985;28;20105;-71
2021/11/24 08:13:32;;;;;;;96.22;31.38;;;2.70;99.90;;;;;;4989982;28;20046;-71
2021/11/24 08:15:59;;;;;;;89.97;31.17;;;2.70;99.90;;;;;;4990452;28;20148;-71
2021/11/24 08:18:27;;;;;;;92.57;30.35;;;2.80;99.90;;;;;;4987224;28;20138;-71
2021/11/24 08:20:59;;;;;;;88.97;32.22;;;2.80;99.90;;;;;;4989510;28;20077;-71
2021/11/24 08:23:26;;;;;;;88.07;31.70;;;2.90;99.90;;;;;;4983301;28;20051;-71
2021/11/24 08:25:53;;;;;;;89.38;29.52;;;3.00;99.90;;;;;;4989129;28;20054;-71
2021/11/24 08:28:20;;;;;;;105.25;32.90;;;3.10;99.90;;;;;;4984455;28;20042;-71
2021/11/24 08:30:47;;;;;;;104.95;32.90;;;3.10;99.90;;;;;;4985895;28;20642;-71
2021/11/24 08:33:14;;;;;;;87.40;28.58;;;3.10;99.90;;;;;;4979970;28;20117;-71
2021/11/24 08:35:41;;;;;;;98.35;32.45;;;3.10;99.90;;;;;;4985456;28;20062;-71
2021/11/24 08:38:09;;;;;;;95.00;31.63;;;3.20;99.90;;;;;;4987795;28;20411;-71
2021/11/24 08:40:36;;;;;;;103.85;32.42;;;3.20;99.90;;;;;;4985782;28;20123;-72
2021/11/24 08:43:03;;;;;;;96.53;31.70;;;3.30;99.90;;;;;;4989711;28;20070;-71
2021/11/24 08:45:30;;;;;;;102.13;32.83;;;3.40;99.90;;;;;;4987963;28;20501;-71
2021/11/24 08:47:57;;;;;;;105.93;32.15;;;3.40;99.90;;;;;;4991200;28;20046;-71
2021/11/24 08:50:23;;;;;;;100.13;32.75;;;3.40;99.90;;;;;;4986289;28;20670;-72
2021/11/24 08:52:50;;;;;;;101.13;33.28;;;3.50;99.90;;;;;;4991875;28;20114;-71
2021/11/24 08:55:18;;;;;;;91.53;31.23;;;3.60;99.90;;;;;;4985742;28;20046;-72
2021/11/24 08:57:46;;;;;;;95.07;31.98;;;3.60;99.90;;;;;;4987921;28;20046;-72
2021/11/24 09:00:16;;;;;;;103.07;33.30;;;3.60;99.90;;;;;;4990092;28;21033;-72
2021/11/24 09:02:43;;;;;;;100.75;33.03;;;3.60;99.90;;;;;;4988760;28;20104;-72
2021/11/24 09:05:13;;;;;;;114.25;33.50;;;3.60;99.90;;;;;;4988922;28;20047;-72
2021/11/24 09:07:40;;;;;;;101.45;33.05;;;3.70;99.90;;;;;;4989035;28;20101;-72
2021/11/24 09:10:08;;;;;;;103.15;33.38;;;3.70;99.90;;;;;;4989576;28;20105;-72
2021/11/24 09:12:34;;;;;;;103.82;33.22;;;3.70;99.90;;;;;;4989694;28;20097;-73
2021/11/24 09:15:02;;;;;;;105.78;31.70;;;3.80;99.90;;;;;;4990191;28;20085;-73
2021/11/24 09:17:29;;;;;;;108.40;33.20;;;3.80;99.90;;;;;;4991546;28;20046;-71
2021/11/24 09:19:56;;;;;;;109.00;33.58;;;3.90;99.90;;;;;;4986377;28;20054;-71
2021/11/24 09:22:42;;;;;;;94.18;30.65;;;3.90;99.90;;;;;;4987165;28;20533;-73
2021/11/24 09:25:17;;;;;;;104.85;31.75;;;4.00;99.90;;;;;;4987051;28;20047;-71
2021/11/24 09:27:59;;;;;;;92.43;31.05;;;4.00;99.90;;;;;;4985617;28;20097;-72
2021/11/24 09:30:29;;;;;;;92.13;29.67;;;4.10;99.90;;;;;;4987644;28;20065;-72
2021/11/24 09:32:56;;;;;;;97.53;30.90;;;4.20;99.90;;;;;;4990649;28;20050;-72
2021/11/24 09:35:23;;;;;;;92.28;30.50;;;4.30;99.90;;;;;;4990755;28;20116;-72
2021/11/24 09:37:50;;;;;;;94.90;32.50;;;4.40;99.90;;;;;;4987488;28;20073;-72
2021/11/24 09:40:17;;;;;;;87.68;27.92;;;4.40;99.90;;;;;;4989729;28;20580;-72
2021/11/24 09:42:46;;;;;;;84.88;30.88;;;4.50;99.90;;;;;;4988400;28;20046;-72
2021/11/24 09:45:16;;;;;;;80.53;28.27;;;4.50;99.90;;;;;;5004634;28;20043;-72
2021/11/24 09:47:48;;;;;;;91.00;29.73;;;4.60;99.90;;;;;;4988165;28;20062;-71
2021/11/24 09:50:17;;;;;;;80.00;28.45;;;4.60;99.90;;;;;;4984981;28;20050;-72
2021/11/24 09:52:46;;;;;;;78.05;28.80;;;4.80;99.90;;;;;;4990670;28;20050;-75
2021/11/24 09:55:13;;;;;;;83.03;29.67;;;4.90;99.90;;;;;;4990903;28;20129;-72
2021/11/24 09:57:41;;;;;;;82.65;28.92;;;4.90;99.90;;;;;;4986649;28;20104;-72
2021/11/24 10:00:08;;;;;;;84.30;29.05;;;5.00;99.90;;;;;;4990778;28;20101;-72
2021/11/24 10:02:36;;;;;;;76.30;29.75;;;5.10;99.90;;;;;;4990449;28;20100;-71
2021/11/24 10:05:04;;;;;;;87.72;30.55;;;5.10;99.90;;;;;;4988783;28;20047;-69
2021/11/24 10:07:32;;;;;;;74.32;27.88;;;5.20;99.90;;;;;;4990554;28;20054;-72
2021/11/24 10:10:05;;;;;;;77.20;28.73;;;5.30;99.90;;;;;;4990658;28;20133;-72
2021/11/24 10:12:32;;;;;;;69.70;27.45;;;5.40;99.90;;;;;;4988049;28;20121;-70
2021/11/24 10:15:02;;;;;;;77.38;26.88;;;5.40;99.90;;;;;;5004943;28;20566;-70
2021/11/24 10:17:29;;;;;;;66.95;27.20;;;5.50;99.90;;;;;;4990276;28;20414;-74
2021/11/24 10:20:11;;;;;;;65.65;27.52;;;5.60;99.90;;;;;;4987669;28;20086;-72
2021/11/24 10:22:42;;;;;;;69.55;28.42;;;5.70;99.90;;;;;;4987803;28;20065;-70
2021/11/24 10:25:16;;;;;;;67.22;28.23;;;5.70;99.90;;;;;;4986161;28;21669;-72
2021/11/24 10:27:48;;;;;;;60.47;25.55;;;5.80;99.90;;;;;;4984823;28;20049;-70
2021/11/24 10:30:26;;;;;;;61.97;26.65;;;5.90;99.90;;;;;;4984109;28;20042;-71
2021/11/24 10:32:53;;;;;;;54.67;24.73;;;6.00;99.90;;;;;;4987316;28;20162;-72
2021/11/24 10:35:28;;;;;;;48.63;22.83;;;6.10;99.90;;;;;;4988307;28;20101;-72
2021/11/24 10:38:16;;;;;;;47.97;22.95;;;6.20;99.90;;;;;;4992074;28;20058;-72
2021/11/24 10:40:46;;;;;;;49.45;22.38;;;6.30;99.90;;;;;;4995173;28;20464;-72
2021/11/24 10:43:16;;;;;;;48.60;24.38;;;6.40;99.90;;;;;;4990663;28;20450;-71
2021/11/24 10:45:57;;;;;;;40.30;21.08;;;6.40;99.90;;;;;;4995271;28;20101;-72
2021/11/24 10:48:31;;;;;;;41.13;20.05;;;6.60;99.90;;;;;;4994187;28;20137;-72
2021/11/24 10:51:01;;;;;;;40.30;19.92;;;6.60;99.90;;;;;;4991314;28;20513;-72
2021/11/24 10:53:28;;;;;;;55.25;22.55;;;6.70;99.90;;;;;;4993703;28;20506;-72
2021/11/24 10:56:06;;;;;;;36.17;18.40;;;6.80;99.90;;;;;;4993405;28;20054;-72
2021/11/24 10:58:37;;;;;;;32.42;17.77;;;6.90;99.90;;;;;;4990100;28;20094;-72
2021/11/24 11:01:04;;;;;;;36.42;18.88;;;7.00;99.90;;;;;;4992011;28;20698;-71
2021/11/24 11:03:42;;;;;;;43.08;20.50;;;7.10;99.90;;;;;;4993319;28;20513;-70
2021/11/24 11:06:25;;;;;;;34.55;19.08;;;7.30;99.90;;;;;;4989569;28;20054;-73
2021/11/24 11:08:58;;;;;;;33.83;19.35;;;7.40;99.90;;;;;;4992996;28;20190;-72
2021/11/24 11:11:37;;;;;;;28.85;15.73;;;7.50;99.90;;;;;;4993628;28;20050;-72
2021/11/24 11:14:22;;;;;;;28.75;15.80;;;7.60;99.90;;;;;;4991642;28;20597;-72
2021/11/24 11:16:53;;;;;;;28.77;15.48;;;7.80;99.90;;;;;;4991431;28;20050;-72
2021/11/24 11:19:48;;;;;;;27.20;14.30;;;7.90;99.90;;;;;;4992475;28;20074;-71
2021/11/24 11:22:18;;;;;;;25.90;12.93;;;8.00;99.90;;;;;;4991580;28;20526;-72
2021/11/24 11:24:45;;;;;;;24.52;11.05;;;8.10;99.90;;;;;;4993350;28;20050;-75
2021/11/24 11:27:14;;;;;;;24.23;12.43;;;8.20;99.90;;;;;;4988843;28;20522;-72
2021/11/24 11:29:43;;;;;;;21.15;11.38;;;8.30;99.90;;;;;;4992039;28;20043;-72
2021/11/24 11:32:10;;;;;;;20.17;12.27;;;8.40;99.90;;;;;;4993516;28;20046;-72
2021/11/24 11:34:38;;;;;;;19.20;12.10;;;8.50;99.90;;;;;;4991364;28;20046;-74
2021/11/24 11:37:06;;;;;;;21.40;11.50;;;8.60;99.90;;;;;;4990695;28;20094;-72
2021/11/24 11:39:34;;;;;;;22.40;12.13;;;8.60;99.90;;;;;;4993191;28;20057;-72
2021/11/24 11:42:10;;;;;;;18.05;11.32;;;8.70;99.90;;;;;;4993176;28;20473;-72
2021/11/24 11:45:07;;;;;;;17.33;10.60;;;8.80;99.90;;;;;;4991656;28;20133;-73
2021/11/24 11:47:44;;;;;;;21.00;11.30;;;8.90;99.90;;;;;;5001835;28;20542;-72
2021/11/24 11:50:13;;;;;;;24.90;14.27;;;8.90;99.90;;;;;;4990376;28;20764;-71
2021/11/24 11:52:41;;;;;;;18.30;10.75;;;9.00;99.90;;;;;;4993434;28;20065;-71
2021/11/24 11:55:22;;;;;;;17.92;10.25;;;9.10;99.90;;;;;;4992719;28;20088;-72
2021/11/24 11:57:49;;;;;;;15.45;9.35;;;9.20;99.90;;;;;;4985193;28;20402;-71
2021/11/24 12:00:16;;;;;;;21.05;10.70;;;9.20;99.90;;;;;;4990260;28;20050;-71
2021/11/24 12:02:51;;;;;;;17.88;10.40;;;9.30;99.90;;;;;;4991394;28;20050;-72
2021/11/24 12:05:18;;;;;;;16.20;9.68;;;9.30;99.90;;;;;;4993383;28;20488;-71
2021/11/24 12:08:06;;;;;;;20.65;10.35;;;9.50;99.90;;;;;;4986958;28;20050;-71
2021/11/24 12:10:59;;;;;;;15.65;9.05;;;9.60;99.90;;;;;;4981946;28;20077;-70
2021/11/24 12:13:33;;;;;;;15.70;8.45;;;9.60;99.90;;;;;;4986264;28;20576;-70
2021/11/24 12:16:41;;;;;;;15.23;7.75;;;9.70;99.90;;;;;;5000366;28;20046;-72
2021/11/24 12:19:19;;;;;;;12.70;7.55;;;9.80;99.90;;;;;;4986982;28;20034;-72
2021/11/24 12:21:55;;;;;;;11.48;6.75;;;9.80;99.90;;;;;;4986513;28;20518;-73
2021/11/24 12:24:39;;;;;;;10.18;6.40;;;9.80;99.90;;;;;;4988241;28;20434;-70
2021/11/24 12:27:06;;;;;;;14.80;8.52;;;9.80;99.90;;;;;;4984319;28;20050;-72
2021/11/24 12:29:44;;;;;;;17.95;8.13;;;9.80;99.90;;;;;;4996102;28;20050;-71
2021/11/24 12:32:11;;;;;;;13.25;7.57;;;9.90;99.90;;;;;;4983314;28;20675;-73
2021/11/24 12:34:52;;;;;;;15.05;7.35;;;9.90;99.90;;;;;;4985301;28;20451;-72
2021/11/24 12:37:23;;;;;;;23.63;12.52;;;10.00;99.90;;;;;;4988649;28;20458;-72
2021/11/24 12:39:50;;;;;;;24.05;15.65;;;10.00;99.90;;;;;;4985104;28;20046;-72
2021/11/24 12:42:26;;;;;;;30.48;17.77;;;9.90;99.90;;;;;;4981324;28;20051;-72
2021/11/24 12:44:54;;;;;;;32.35;16.38;;;9.80;99.90;;;;;;4990759;28;20104;-71
2021/11/24 12:47:24;;;;;;;31.17;17.40;;;9.70;99.90;;;;;;4986661;28;20054;-71